createdAt,value
2022-08-16T00:02:33.057Z,4.15
2022-08-16T00:05:00.820Z,4.20
2022-08-16T00:07:29.767Z,4.63
2022-08-16T00:09:58.707Z,4.22
2022-08-16T00:12:30.142Z,3.70
2022-08-16T00:15:00.346Z,4.03
2022-08-16T00:17:56.601Z,4.43
2022-08-16T00:20:20.932Z,4.50
2022-08-16T00:22:48.449Z,3.72
2022-08-16T00:25:21.846Z,4.10
2022-08-16T00:28:09.183Z,3.80
2022-08-16T00:30:38.019Z,3.88
2022-08-16T00:33:06.606Z,3.88
2022-08-16T00:35:37.065Z,4.05
2022-08-16T00:38:40.250Z,3.80
2022-08-16T00:40:54.358Z,3.60
2022-08-16T00:43:40.785Z,3.90
2022-08-16T00:46:33.731Z,3.95
2022-08-16T00:49:01.418Z,3.58
2022-08-16T00:51:29.714Z,4.13
2022-08-16T00:53:56.756Z,3.80
2022-08-16T00:56:57.594Z,4.25
2022-08-16T00:59:16.006Z,3.95
2022-08-16T01:01:43.364Z,3.65
2022-08-16T01:04:29.462Z,3.53
2022-08-16T01:07:01.920Z,3.95
2022-08-16T01:09:34.474Z,4.05
2022-08-16T01:12:08.539Z,3.53
2022-08-16T01:14:41.472Z,3.95
2022-08-16T01:17:14.045Z,3.75
2022-08-16T01:19:46.086Z,3.38
2022-08-16T01:22:50.292Z,3.50
2022-08-16T01:25:34.387Z,4.38
2022-08-16T01:28:06.856Z,3.60
2022-08-16T01:30:40.153Z,3.90
2022-08-16T01:33:19.590Z,3.70
2022-08-16T01:35:57.647Z,3.80
2022-08-16T01:38:39.660Z,4.20
2022-08-16T01:41:13.224Z,3.60
2022-08-16T01:43:54.194Z,3.97
2022-08-16T01:46:39.251Z,4.03
2022-08-16T01:49:18.779Z,3.92
2022-08-16T01:51:51.421Z,3.88
2022-08-16T01:54:31.007Z,3.83
2022-08-16T01:56:59.238Z,3.95
2022-08-16T01:59:27.473Z,3.75
2022-08-16T02:02:00.104Z,3.90
2022-08-16T02:04:54.501Z,4.18
2022-08-16T02:07:23.758Z,3.92
2022-08-16T02:09:57.376Z,4.00
2022-08-16T02:12:50.071Z,3.83
2022-08-16T02:15:25.476Z,4.50
2022-08-16T02:17:57.292Z,4.05
2022-08-16T02:20:27.948Z,4.28
2022-08-16T02:22:59.825Z,3.72
2022-08-16T02:25:50.491Z,3.88
2022-08-16T02:28:17.164Z,3.97
2022-08-16T02:30:50.044Z,4.10
2022-08-16T02:33:18.484Z,4.15
2022-08-16T02:35:53.803Z,4.20
2022-08-16T02:38:25.082Z,4.03
2022-08-16T02:40:54.551Z,4.13
2022-08-16T02:43:26.896Z,3.67
2022-08-16T02:45:57.694Z,3.78
2022-08-16T02:48:29.133Z,4.05
2022-08-16T02:51:07.003Z,3.90
2022-08-16T02:53:41.261Z,4.10
2022-08-16T02:56:14.784Z,4.20
2022-08-16T02:58:44.100Z,4.18
2022-08-16T03:01:24.772Z,3.97
2022-08-16T03:04:39.909Z,3.95
2022-08-16T03:06:56.354Z,3.72
2022-08-16T03:09:49.833Z,4.35
2022-08-16T03:12:21.213Z,4.57
2022-08-16T03:14:58.118Z,4.00
2022-08-16T03:17:32.343Z,4.07
2022-08-16T03:20:03.388Z,4.18
2022-08-16T03:22:37.638Z,3.95
2022-08-16T03:25:14.836Z,3.85
2022-08-16T03:27:52.395Z,4.32
2022-08-16T03:30:25.036Z,4.35
2022-08-16T03:32:56.624Z,4.07
2022-08-16T03:35:32.988Z,4.40
2022-08-16T03:38:34.584Z,4.30
2022-08-16T03:40:53.653Z,4.10
2022-08-16T03:43:23.549Z,4.20
2022-08-16T03:46:13.115Z,3.85
2022-08-16T03:49:00.272Z,4.28
2022-08-16T03:51:28.778Z,4.07
2022-08-16T03:54:01.679Z,3.88
2022-08-16T03:56:31.413Z,3.88
2022-08-16T03:59:00.186Z,3.80
2022-08-16T04:01:33.745Z,3.88
2022-08-16T04:04:01.853Z,4.03
2022-08-16T04:06:29.665Z,4.47
2022-08-16T04:08:56.509Z,4.38
2022-08-16T04:11:24.659Z,4.45
2022-08-16T04:14:01.371Z,4.18
2022-08-16T04:16:39.417Z,3.88
2022-08-16T04:19:31.652Z,4.35
2022-08-16T04:22:00.921Z,4.90
2022-08-16T04:24:32.217Z,4.63
2022-08-16T04:26:59.681Z,4.75
2022-08-16T04:29:26.846Z,4.57
2022-08-16T04:32:11.519Z,4.30
2022-08-16T04:34:42.481Z,4.80
2022-08-16T04:37:12.343Z,4.80
2022-08-16T04:39:47.354Z,4.97
2022-08-16T04:42:26.426Z,4.10
2022-08-16T04:44:56.855Z,4.22
2022-08-16T04:47:31.386Z,3.70
2022-08-16T04:50:15.212Z,3.80
2022-08-16T04:52:59.005Z,3.40
2022-08-16T04:55:37.861Z,2.95
2022-08-16T04:58:44.865Z,3.30
2022-08-16T05:00:55.290Z,3.15
2022-08-16T05:03:23.802Z,3.40
2022-08-16T05:05:59.007Z,3.20
2022-08-16T05:08:30.840Z,3.30
2022-08-16T05:11:14.568Z,3.30
2022-08-16T05:13:44.419Z,3.40
2022-08-16T05:16:29.922Z,3.38
2022-08-16T05:19:11.619Z,3.97
2022-08-16T05:21:46.425Z,3.53
2022-08-16T05:24:13.428Z,4.50
2022-08-16T05:26:43.078Z,4.57
2022-08-16T05:29:15.167Z,4.55
2022-08-16T05:31:56.300Z,4.28
2022-08-16T05:34:23.037Z,4.32
2022-08-16T05:36:52.600Z,4.05
2022-08-16T05:39:22.457Z,4.25
2022-08-16T05:41:51.740Z,3.88
2022-08-16T05:44:24.076Z,3.80
2022-08-16T05:46:56.133Z,3.20
2022-08-16T05:49:25.829Z,3.35
2022-08-16T05:52:11.253Z,2.95
2022-08-16T05:54:46.584Z,2.80
2022-08-16T05:57:18.156Z,2.88
2022-08-16T05:59:46.031Z,2.65
2022-08-16T06:02:13.884Z,2.35
2022-08-16T06:04:45.099Z,2.75
2022-08-16T06:07:26.131Z,2.67
2022-08-16T06:10:09.774Z,2.60
2022-08-16T06:12:38.058Z,2.35
2022-08-16T06:15:16.664Z,2.40
2022-08-16T06:17:45.283Z,2.20
2022-08-16T06:20:25.680Z,2.58
2022-08-16T06:23:11.562Z,2.45
2022-08-16T06:25:55.401Z,2.80
2022-08-16T06:28:36.105Z,2.40
2022-08-16T06:31:06.843Z,2.58
2022-08-16T06:33:41.582Z,2.33
2022-08-16T06:36:11.760Z,2.45
2022-08-16T06:38:55.691Z,2.50
2022-08-16T06:41:39.649Z,2.40
2022-08-16T06:44:20.827Z,2.70
2022-08-16T06:46:52.498Z,2.47
2022-08-16T06:49:20.481Z,2.60
2022-08-16T06:51:48.365Z,2.40
2022-08-16T06:54:20.812Z,2.60
2022-08-16T06:56:47.516Z,2.20
2022-08-16T06:59:19.420Z,1.85
2022-08-16T07:01:55.148Z,2.20
2022-08-16T07:04:33.004Z,2.17
2022-08-16T07:07:14.385Z,2.30
2022-08-16T07:09:42.212Z,1.92
2022-08-16T07:12:09.354Z,2.28
2022-08-16T07:14:41.233Z,2.50
2022-08-16T07:17:12.894Z,2.30
2022-08-16T07:20:03.866Z,2.10
2022-08-16T07:22:52.710Z,2.55
2022-08-16T07:25:40.176Z,2.50
2022-08-16T07:28:11.987Z,2.13
2022-08-16T07:30:48.388Z,2.10
2022-08-16T07:33:53.429Z,2.22
2022-08-16T07:36:29.050Z,2.13
2022-08-16T07:38:57.951Z,2.38
2022-08-16T07:41:27.141Z,2.22
2022-08-16T07:43:58.861Z,2.47
2022-08-16T07:46:36.922Z,2.42
2022-08-16T07:49:24.840Z,2.15
2022-08-16T07:51:54.286Z,2.20
2022-08-16T07:54:37.967Z,2.10
2022-08-16T07:57:11.630Z,2.10
2022-08-16T07:59:45.581Z,2.20
2022-08-16T08:02:20.477Z,2.13
2022-08-16T08:04:52.930Z,2.38
2022-08-16T08:07:27.687Z,2.17
2022-08-16T08:09:57.803Z,2.38
2022-08-16T08:12:31.343Z,2.40
2022-08-16T08:15:00.018Z,2.10
2022-08-16T08:17:42.610Z,2.47
2022-08-16T08:20:23.956Z,2.55
2022-08-16T08:23:00.856Z,2.60
2022-08-16T08:25:54.555Z,2.20
2022-08-16T08:28:26.508Z,2.30
2022-08-16T08:31:02.982Z,2.30
2022-08-16T08:33:35.327Z,2.15
2022-08-16T08:36:06.612Z,2.17
2022-08-16T08:38:45.629Z,2.05
2022-08-16T08:41:18.661Z,2.05
2022-08-16T08:43:50.526Z,2.22
2022-08-16T08:46:21.683Z,2.13
2022-08-16T08:48:59.720Z,2.25
2022-08-16T08:51:35.908Z,2.28
2022-08-16T08:54:09.348Z,2.25
2022-08-16T08:56:45.410Z,2.15
2022-08-16T08:59:34.178Z,2.25
2022-08-16T09:02:09.959Z,2.10
2022-08-16T09:04:47.481Z,2.35
2022-08-16T09:07:18.223Z,1.80
2022-08-16T09:09:46.769Z,2.00
2022-08-16T09:12:35.582Z,2.30
2022-08-16T09:15:08.214Z,1.98
2022-08-16T09:17:48.995Z,2.15
2022-08-16T09:20:19.981Z,2.00
2022-08-16T09:22:51.262Z,1.90
2022-08-16T09:25:26.254Z,1.98
2022-08-16T09:28:02.823Z,2.38
2022-08-16T09:30:44.308Z,2.20
2022-08-16T09:33:14.273Z,2.03
2022-08-16T09:35:42.354Z,1.90
2022-08-16T09:38:11.997Z,1.90
2022-08-16T09:40:43.163Z,1.98
2022-08-16T09:43:37.740Z,2.00
2022-08-16T09:45:59.947Z,2.10
2022-08-16T09:48:37.124Z,2.00
2022-08-16T09:51:12.926Z,2.00
2022-08-16T09:53:39.880Z,1.73
2022-08-16T09:56:26.714Z,2.00
2022-08-16T09:59:05.341Z,1.70
2022-08-16T10:01:36.572Z,2.10
2022-08-16T10:04:04.542Z,1.73
2022-08-16T10:06:33.421Z,2.00
2022-08-16T10:09:10.746Z,2.20
2022-08-16T10:11:50.536Z,2.00
2022-08-16T10:14:19.701Z,1.90
2022-08-16T10:16:48.971Z,1.88
2022-08-16T10:19:19.411Z,1.70
2022-08-16T10:21:56.675Z,1.80
2022-08-16T10:24:28.041Z,1.90
2022-08-16T10:27:18.381Z,1.60
2022-08-16T10:29:59.153Z,1.83
2022-08-16T10:32:30.506Z,1.95
2022-08-16T10:34:59.586Z,1.90
2022-08-16T10:37:32.456Z,1.80
2022-08-16T10:40:28.641Z,1.65
2022-08-16T10:42:58.466Z,1.80
2022-08-16T10:45:25.359Z,2.05
2022-08-16T10:48:03.500Z,1.92
2022-08-16T10:50:32.489Z,1.85
2022-08-16T10:53:00.200Z,1.88
2022-08-16T10:55:44.195Z,1.80
2022-08-16T10:58:16.718Z,1.60
2022-08-16T11:00:46.239Z,2.10
2022-08-16T11:06:03.433Z,1.98
2022-08-16T11:08:41.924Z,2.20
2022-08-16T11:11:19.185Z,1.92
2022-08-16T11:14:10.953Z,1.90
2022-08-16T11:19:22.593Z,1.77
2022-08-16T11:24:42.627Z,1.73
2022-08-16T11:27:20.074Z,1.90
2022-08-16T11:29:53.347Z,1.90
2022-08-16T11:32:29.703Z,2.03
2022-08-16T11:35:10.422Z,1.48
2022-08-16T11:40:32.678Z,1.75
2022-08-16T11:43:01.599Z,1.98
2022-08-16T11:45:33.595Z,2.38
2022-08-16T11:48:03.066Z,1.92
2022-08-16T11:50:29.924Z,2.10
2022-08-16T11:52:56.499Z,2.00
2022-08-16T11:55:23.514Z,2.00
2022-08-16T11:57:51.573Z,2.00
2022-08-16T12:00:33.891Z,2.03
2022-08-16T12:03:12.636Z,1.77
2022-08-16T12:05:42.662Z,1.98
2022-08-16T12:08:10.276Z,2.00
2022-08-16T12:10:40.455Z,1.98
2022-08-16T12:13:10.951Z,2.10
2022-08-16T12:15:38.627Z,1.90
2022-08-16T12:18:06.888Z,1.67
2022-08-16T12:20:37.227Z,1.88
2022-08-16T12:23:04.925Z,1.90
2022-08-16T12:25:33.720Z,1.75
2022-08-16T12:28:03.032Z,1.88
2022-08-16T12:30:38.611Z,1.65
2022-08-16T12:33:09.918Z,1.90
2022-08-16T12:35:39.433Z,1.90
2022-08-16T12:38:35.406Z,1.80
2022-08-16T12:40:55.625Z,1.90
2022-08-16T12:43:24.199Z,1.98
2022-08-16T12:45:54.064Z,1.90
2022-08-16T12:48:35.010Z,1.65
2022-08-16T12:51:13.581Z,2.00
2022-08-16T12:53:47.933Z,2.00
2022-08-16T12:56:16.891Z,1.80
2022-08-16T12:58:50.326Z,2.17
2022-08-16T13:01:22.581Z,1.75
2022-08-16T13:03:59.299Z,2.10
2022-08-16T13:06:36.916Z,1.80
2022-08-16T13:09:06.231Z,1.88
2022-08-16T13:11:38.455Z,1.60
2022-08-16T13:14:08.241Z,1.70
2022-08-16T13:16:47.319Z,1.60
2022-08-16T13:19:15.859Z,1.73
2022-08-16T13:21:42.525Z,1.77
2022-08-16T13:24:09.165Z,1.55
2022-08-16T13:26:35.783Z,1.88
2022-08-16T13:29:04.084Z,1.80
2022-08-16T13:31:32.499Z,2.00
2022-08-16T13:34:00.134Z,1.83
2022-08-16T13:39:14.719Z,1.75
2022-08-16T13:41:41.399Z,1.83
2022-08-16T13:44:09.501Z,1.70
2022-08-16T13:46:36.498Z,1.65
2022-08-16T13:49:03.454Z,1.90
2022-08-16T13:51:30.929Z,1.50
2022-08-16T13:54:03.238Z,1.70
2022-08-16T13:56:38.047Z,1.83
2022-08-16T13:59:14.422Z,1.67
2022-08-16T14:01:55.725Z,1.77
2022-08-16T14:04:28.900Z,2.10
2022-08-16T14:06:57.594Z,1.33
2022-08-16T14:09:27.205Z,2.13
2022-08-16T14:11:56.455Z,1.80
2022-08-16T14:14:28.776Z,1.58
2022-08-16T14:17:01.025Z,1.85
2022-08-16T14:19:29.382Z,1.80
2022-08-16T14:22:13.498Z,1.80
2022-08-16T14:24:40.736Z,1.65
2022-08-16T14:27:12.408Z,1.58
2022-08-16T14:29:39.635Z,1.55
2022-08-16T14:32:09.345Z,1.80
2022-08-16T14:34:40.714Z,1.73
2022-08-16T14:37:08.963Z,1.80
2022-08-16T14:39:36.894Z,1.65
2022-08-16T14:42:13.443Z,1.50
2022-08-16T14:44:41.462Z,1.60
2022-08-16T14:47:10.520Z,1.63
2022-08-16T14:49:40.525Z,1.50
2022-08-16T14:52:11.398Z,1.50
2022-08-16T14:54:40.366Z,1.60
2022-08-16T14:57:07.073Z,1.50
2022-08-16T14:59:34.661Z,1.70
2022-08-16T15:02:14.416Z,1.60
2022-08-16T15:05:01.229Z,1.73
2022-08-16T15:07:35.045Z,1.60
2022-08-16T15:10:03.560Z,1.50
2022-08-16T15:12:33.880Z,1.42
2022-08-16T15:15:04.588Z,1.42
2022-08-16T15:17:41.463Z,1.30
2022-08-16T15:20:09.375Z,1.40
2022-08-16T15:22:43.247Z,1.63
2022-08-16T15:25:17.176Z,1.55
2022-08-16T15:27:45.034Z,1.60
2022-08-16T15:30:58.227Z,1.55
2022-08-16T15:33:07.320Z,1.50
2022-08-16T15:35:36.304Z,1.27
2022-08-16T15:38:08.961Z,1.48
2022-08-16T15:40:37.045Z,1.30
2022-08-16T15:43:23.723Z,1.50
2022-08-16T15:46:00.859Z,1.55
2022-08-16T15:48:30.509Z,1.40
2022-08-16T15:50:58.998Z,1.60
2022-08-16T15:53:26.422Z,1.50
2022-08-16T15:55:53.342Z,1.30
2022-08-16T15:58:35.681Z,1.73
2022-08-16T16:01:06.082Z,1.63
2022-08-16T16:03:34.536Z,1.65
2022-08-16T16:06:01.665Z,1.80
2022-08-16T16:08:28.647Z,1.83
2022-08-16T16:11:01.239Z,1.50
2022-08-16T16:13:30.496Z,1.42
2022-08-16T16:16:00.310Z,1.50
2022-08-16T16:18:27.119Z,1.40
2022-08-16T16:21:05.253Z,1.77
2022-08-16T16:23:36.517Z,1.65
2022-08-16T16:26:14.768Z,1.75
2022-08-16T16:28:51.112Z,1.70
2022-08-16T16:31:36.006Z,2.03
2022-08-16T16:34:03.298Z,1.58
2022-08-16T16:36:32.213Z,1.70
2022-08-16T16:39:09.350Z,1.65
2022-08-16T16:41:36.914Z,1.45
2022-08-16T16:44:04.242Z,1.98
2022-08-16T16:46:41.341Z,1.88
2022-08-16T16:49:12.653Z,1.90
2022-08-16T16:51:44.619Z,1.75
2022-08-16T16:54:14.006Z,1.60
2022-08-16T16:56:55.177Z,2.10
2022-08-16T16:59:21.718Z,2.70
2022-08-16T17:01:59.940Z,2.13
2022-08-16T17:04:37.092Z,2.00
2022-08-16T17:07:04.317Z,2.20
2022-08-16T17:09:39.391Z,1.90
2022-08-16T17:12:08.149Z,1.73
2022-08-16T17:14:38.429Z,1.58
2022-08-16T17:17:08.681Z,1.80
2022-08-16T17:19:41.179Z,1.60
2022-08-16T17:22:15.432Z,1.60
2022-08-16T17:24:50.328Z,1.50
2022-08-16T17:27:18.402Z,1.60
2022-08-16T17:30:02.222Z,1.65
2022-08-16T17:32:46.575Z,1.60
2022-08-16T17:35:18.472Z,1.40
2022-08-16T17:37:50.948Z,1.55
2022-08-16T17:40:45.752Z,1.60
2022-08-16T17:43:44.427Z,1.70
2022-08-16T17:46:41.501Z,1.60
2022-08-16T17:49:05.168Z,1.90
2022-08-16T17:51:31.902Z,1.65
2022-08-16T17:53:58.658Z,1.67
2022-08-16T17:56:25.378Z,2.08
2022-08-16T17:58:52.129Z,1.63
2022-08-16T18:01:25.379Z,1.80
2022-08-16T18:04:06.833Z,1.80
2022-08-16T18:06:36.515Z,1.65
2022-08-16T18:09:04.139Z,1.67
2022-08-16T18:11:32.930Z,1.88
2022-08-16T18:13:59.761Z,1.63
2022-08-16T18:16:26.459Z,1.70
2022-08-16T18:18:53.064Z,1.90
2022-08-16T18:21:21.525Z,2.20
2022-08-16T18:23:48.294Z,1.80
2022-08-16T18:26:14.944Z,2.03
2022-08-16T18:28:41.534Z,1.90
2022-08-16T18:31:08.576Z,1.90
2022-08-16T18:33:37.612Z,1.88
2022-08-16T18:36:20.437Z,1.98
2022-08-16T18:38:49.393Z,1.80
2022-08-16T18:41:16.630Z,2.03
2022-08-16T18:44:23.199Z,1.98
2022-08-16T18:46:30.450Z,1.90
2022-08-16T18:48:57.032Z,2.20
2022-08-16T18:51:25.407Z,2.13
2022-08-16T18:53:53.217Z,2.03
2022-08-16T18:56:20.032Z,2.05
2022-08-16T18:58:46.740Z,2.17
2022-08-16T19:01:13.673Z,2.30
2022-08-16T19:03:40.361Z,2.40
2022-08-16T19:06:11.462Z,2.10
2022-08-16T19:08:43.663Z,2.05
2022-08-16T19:11:17.506Z,2.20
2022-08-16T19:13:44.843Z,2.25
2022-08-16T19:16:12.720Z,2.00
2022-08-16T19:18:39.394Z,2.35
2022-08-16T19:21:07.919Z,2.42
2022-08-16T19:23:37.293Z,2.33
2022-08-16T19:26:24.636Z,2.25
2022-08-16T19:28:58.746Z,2.38
2022-08-16T19:31:30.299Z,2.30
2022-08-16T19:33:57.655Z,2.25
2022-08-16T19:36:30.897Z,2.20
2022-08-16T19:39:04.190Z,2.53
2022-08-16T19:41:31.792Z,2.50
2022-08-16T19:43:58.401Z,2.17
2022-08-16T19:46:25.130Z,2.15
2022-08-16T19:48:51.687Z,2.47
2022-08-16T19:51:18.303Z,2.47
2022-08-16T19:53:44.975Z,2.45
2022-08-16T19:56:11.594Z,2.20
2022-08-16T19:58:44.182Z,2.38
2022-08-16T20:01:23.134Z,2.55
2022-08-16T20:03:49.781Z,2.50
2022-08-16T20:06:37.822Z,2.55
2022-08-16T20:09:03.741Z,2.70
2022-08-16T20:11:30.329Z,2.30
2022-08-16T20:13:57.148Z,2.25
2022-08-16T20:16:24.158Z,2.38
2022-08-16T20:18:50.773Z,2.30
2022-08-16T20:21:17.407Z,2.40
2022-08-16T20:23:44.080Z,2.42
2022-08-16T20:26:10.642Z,2.38
2022-08-16T20:28:52.030Z,2.22
2022-08-16T20:31:22.226Z,2.53
2022-08-16T20:33:49.333Z,2.70
2022-08-16T20:36:16.658Z,2.22
2022-08-16T20:38:44.845Z,2.30
2022-08-16T20:41:12.112Z,2.83
2022-08-16T20:43:38.680Z,2.55
2022-08-16T20:46:05.458Z,2.40
2022-08-16T20:48:32.018Z,2.80
2022-08-16T20:50:58.667Z,2.63
2022-08-16T20:53:25.271Z,2.60
2022-08-16T20:55:52.071Z,2.45
2022-08-16T20:58:24.498Z,2.33
2022-08-16T21:00:51.276Z,2.30
2022-08-16T21:03:17.913Z,2.60
2022-08-16T21:05:44.809Z,2.67
2022-08-16T21:08:50.930Z,2.40
2022-08-16T21:11:00.518Z,2.30
2022-08-16T21:13:27.115Z,2.50
2022-08-16T21:15:53.823Z,2.60
2022-08-16T21:18:20.383Z,2.40
2022-08-16T21:20:47.124Z,2.38
2022-08-16T21:23:13.737Z,2.50
2022-08-16T21:25:51.217Z,2.45
2022-08-16T21:28:38.753Z,2.40
2022-08-16T21:31:13.453Z,2.42
2022-08-16T21:33:40.555Z,2.45
2022-08-16T21:36:07.472Z,2.60
2022-08-16T21:38:34.160Z,2.20
2022-08-16T21:41:02.842Z,2.58
2022-08-16T21:43:30.252Z,2.78
2022-08-16T21:45:56.965Z,2.60
2022-08-16T21:48:32.680Z,2.70
2022-08-16T21:51:11.543Z,2.72
2022-08-16T21:53:38.642Z,2.90
2022-08-16T21:56:06.118Z,2.60
2022-08-16T21:58:33.044Z,2.47
2022-08-16T22:01:00.659Z,2.35
2022-08-16T22:03:27.973Z,2.50
2022-08-16T22:06:13.485Z,2.55
2022-08-16T22:08:50.427Z,2.40
2022-08-16T22:11:19.698Z,2.88
2022-08-16T22:13:51.508Z,2.60
2022-08-16T22:16:28.994Z,2.88
2022-08-16T22:18:55.804Z,2.38
2022-08-16T22:21:22.999Z,2.72
2022-08-16T22:23:57.168Z,2.50
2022-08-16T22:26:30.131Z,2.50
2022-08-16T22:29:03.534Z,2.55
2022-08-16T22:31:30.331Z,2.72
2022-08-16T22:33:57.482Z,2.40
2022-08-16T22:36:28.859Z,2.30
2022-08-16T22:39:01.194Z,2.63
2022-08-16T22:41:30.119Z,2.70
2022-08-16T22:43:57.192Z,2.53
2022-08-16T22:46:24.438Z,2.50
2022-08-16T22:48:55.696Z,2.67
2022-08-16T22:51:26.007Z,2.70
2022-08-16T22:53:58.612Z,2.63
2022-08-16T22:56:28.296Z,2.63
2022-08-16T22:58:55.728Z,2.70
2022-08-16T23:01:25.894Z,2.67
2022-08-16T23:03:54.199Z,2.65
2022-08-16T23:06:22.611Z,3.00
2022-08-16T23:08:50.536Z,2.55
2022-08-16T23:11:25.711Z,2.55
2022-08-16T23:13:56.758Z,2.50
2022-08-16T23:16:32.571Z,2.72
2022-08-16T23:19:03.148Z,2.80
2022-08-16T23:21:31.907Z,2.80
2022-08-16T23:23:59.194Z,2.75
2022-08-16T23:26:36.326Z,2.97
2022-08-16T23:29:15.878Z,2.63
2022-08-16T23:31:54.915Z,2.70
2022-08-16T23:34:22.301Z,2.65
2022-08-16T23:36:49.584Z,2.90
2022-08-16T23:39:19.868Z,2.80
2022-08-16T23:41:46.933Z,2.90
2022-08-16T23:44:57.718Z,2.90
2022-08-16T23:47:00.321Z,3.10
2022-08-16T23:50:00.527Z,3.50
2022-08-16T23:52:13.692Z,2.70
2022-08-16T23:54:42.139Z,3.03
2022-08-16T23:57:08.849Z,2.72
2022-08-16T23:59:43.718Z,2.97
